Keene, VA (22946)

3:09 AM EST on January 18, 2017 (GMT -0500)
Along Langhorne Rd | | Change Station

Elev 367 ft 37.80 °N, 78.54 °W | Updated 3 minutes ago

Mostly Cloudy
Mostly Cloudy
52.3 °F
Feels Like 52.3 °F
N
0.9
Wind Variable Wind from East
Gusts 1.0 mph

Today
High -- | Low -- °F
--% Chance of Precip.
Yesterday
High -- | Low -- °F
Precip. -- in
Pressure 29.85 in
Visibility 1.0 miles
Clouds
Dew Point 51 °F
Humidity 97%
Rainfall 0.00 in
Snow Depth Not available.
7:27 AM 5:22 PM
Waning Gibbous, 65% visible
SPECI KCHO 180807Z 18004KT 1SM BR VV002 11/11 A2985 RMK AO2 VIS 1/4V5 T01110106
Pressure 29.85 in
Visibility 1.0 miles
Clouds
Dew Point 51 °F
Humidity 97%
Rainfall 0.00 in
Snow Depth Not available.
7:27 AM 5:22 PM
Waning Gibbous, 65% visible
SPECI KCHO 180807Z 18004KT 1SM BR VV002 11/11 A2985 RMK AO2 VIS 1/4V5 T01110106

Get Your Daily Forecast Email!

Thanks for signing up!

Be on the lookout for a verification email in your inbox.

You'll start receiving the daily forecast at 8 AM.

×

10-Day Weather Forecast

Almanac

Astronomy

Jan. 18, 2017 Rise Set
Actual Time
Civil Twilight
Nautical Twilight
Astronomical Twilight
Moon
Length of Visible Light
Length of Day
Tomorrow will be .
, % of the Moon is Illuminated

Today's Extremes

State Highs State Lows

Community

WunderPhotos

Upload Photos

1,962,540 photos uploaded!

WunderBlog® & News

Nearby

Air Quality

  Air Quality AQ Index Pollutant
Not available.

Snow Depth

Station Depth Elevation

Earthquake Activity

City Distance Mag. Time & Date
Minimum magnitude displayed is 2.5.

Coastal Water Temperatures

Place Temperature

Stations

Nearby Weather Stations

Station Location Temp. Windchill Dew Point Humidity Wind Precip. Elev Updated Type
                   

Watches & Warnings

There are currently no watches in effect.